createdAt,value
2018-12-12T00:00:14.246Z,0
2018-12-12T00:01:14.261Z,0
2018-12-12T00:02:14.320Z,0
2018-12-12T00:03:14.345Z,0
2018-12-12T00:04:14.303Z,0
2018-12-12T00:05:28.976Z,0
2018-12-12T00:06:28.991Z,0
2018-12-12T00:07:14.344Z,0
2018-12-12T00:08:14.461Z,0
2018-12-12T00:09:29.030Z,0
2018-12-12T00:10:14.445Z,0
2018-12-12T00:11:29.166Z,0
2018-12-12T00:12:14.414Z,0
2018-12-12T00:13:14.431Z,0
2018-12-12T00:14:29.108Z,0
2018-12-12T00:16:29.130Z,0
2018-12-12T00:17:14.482Z,0
2018-12-12T00:18:14.490Z,0
2018-12-12T00:19:14.509Z,0
2018-12-12T00:20:14.525Z,0
2018-12-12T00:21:14.537Z,0
2018-12-12T00:22:29.312Z,0
2018-12-12T00:23:14.562Z,0
2018-12-12T00:24:29.240Z,0
2018-12-12T00:25:29.254Z,0
2018-12-12T00:26:14.603Z,0
2018-12-12T00:27:29.287Z,0
2018-12-12T00:28:14.630Z,0
2018-12-12T00:29:14.663Z,0
2018-12-12T00:31:14.674Z,0
2018-12-12T00:32:29.349Z,0
2018-12-12T00:33:14.721Z,0
2018-12-12T00:34:14.715Z,0
2018-12-12T00:36:14.746Z,0
2018-12-12T00:37:14.759Z,0
2018-12-12T00:38:14.770Z,0
2018-12-12T00:39:29.444Z,0
2018-12-12T00:40:14.799Z,0
2018-12-12T00:41:14.809Z,0
2018-12-12T00:42:29.488Z,0
2018-12-12T00:43:14.839Z,0
2018-12-12T00:44:29.272Z,0
2018-12-12T00:45:14.880Z,0
2018-12-12T00:46:14.884Z,0
2018-12-12T00:47:14.896Z,0
2018-12-12T00:48:29.568Z,0
2018-12-12T00:49:14.925Z,0
2018-12-12T00:50:14.934Z,0
2018-12-12T00:51:14.949Z,0
2018-12-12T00:52:14.960Z,0
2018-12-12T00:53:14.975Z,0
2018-12-12T00:54:14.988Z,0
2018-12-12T00:55:15.009Z,0
2018-12-12T00:56:29.686Z,0
2018-12-12T00:57:15.031Z,0
2018-12-12T00:58:29.708Z,0
2018-12-12T00:59:15.058Z,0
2018-12-12T01:00:15.119Z,0
2018-12-12T01:01:15.092Z,0
2018-12-12T01:02:15.101Z,0
2018-12-12T01:03:15.116Z,0
2018-12-12T01:04:29.846Z,0
2018-12-12T01:05:15.144Z,0
2018-12-12T01:06:15.258Z,0
2018-12-12T01:07:15.175Z,0
2018-12-12T01:08:29.906Z,0
2018-12-12T01:09:15.254Z,0
2018-12-12T01:10:29.875Z,0
2018-12-12T01:11:15.232Z,0
2018-12-12T01:12:15.242Z,0
2018-12-12T01:13:15.254Z,0
2018-12-12T01:14:15.266Z,0
2018-12-12T01:15:15.284Z,0
2018-12-12T01:16:15.347Z,0
2018-12-12T01:17:15.322Z,0
2018-12-12T01:18:15.328Z,0
2018-12-12T01:19:30.001Z,0
2018-12-12T01:20:15.349Z,0
2018-12-12T01:21:15.370Z,0
2018-12-12T01:22:15.383Z,0
2018-12-12T01:23:15.394Z,0
2018-12-12T01:24:15.407Z,0
2018-12-12T01:25:15.422Z,0
2018-12-12T01:26:15.438Z,0
2018-12-12T01:27:15.501Z,0
2018-12-12T01:28:15.465Z,0
2018-12-12T01:29:15.507Z,0
2018-12-12T01:30:15.491Z,0
2018-12-12T01:31:15.504Z,0
2018-12-12T01:32:15.626Z,0
2018-12-12T01:33:15.536Z,0
2018-12-12T01:34:15.313Z,0
2018-12-12T01:35:15.562Z,0
2018-12-12T01:36:15.583Z,0
2018-12-12T01:37:15.588Z,0
2018-12-12T01:38:15.606Z,0
2018-12-12T01:39:15.616Z,0
2018-12-12T01:40:15.630Z,0
2018-12-12T01:41:15.664Z,0
2018-12-12T01:42:30.322Z,0
2018-12-12T01:43:15.722Z,0
2018-12-12T01:44:15.684Z,0
2018-12-12T01:45:15.700Z,0
2018-12-12T01:46:15.717Z,0
2018-12-12T01:47:15.731Z,0
2018-12-12T01:48:15.767Z,0
2018-12-12T01:49:15.760Z,0
2018-12-12T01:50:15.870Z,0
2018-12-12T01:51:30.448Z,0
2018-12-12T01:52:15.801Z,0
2018-12-12T01:53:15.812Z,0
2018-12-12T01:54:15.827Z,0
2018-12-12T01:55:15.839Z,0
2018-12-12T01:56:15.855Z,0
2018-12-12T01:57:15.879Z,0
2018-12-12T01:58:15.891Z,0
2018-12-12T01:59:15.898Z,0
2018-12-12T02:00:15.912Z,0
2018-12-12T02:02:15.943Z,0
2018-12-12T02:03:15.958Z,0
2018-12-12T02:04:15.970Z,0
2018-12-12T02:06:30.470Z,0
2018-12-12T02:07:30.671Z,0
2018-12-12T02:08:16.026Z,0
2018-12-12T02:09:16.097Z,0
2018-12-12T02:10:16.050Z,0
2018-12-12T02:11:16.068Z,0
2018-12-12T02:12:16.085Z,0
2018-12-12T02:13:16.099Z,0
2018-12-12T02:14:16.105Z,0
2018-12-12T02:16:16.185Z,0
2018-12-12T02:17:16.258Z,0
2018-12-12T02:18:16.212Z,0
2018-12-12T02:19:16.179Z,0
2018-12-12T02:20:16.191Z,0
2018-12-12T02:21:16.207Z,0
2018-12-12T02:22:16.222Z,0
2018-12-12T02:23:30.943Z,0
2018-12-12T02:24:16.247Z,0
2018-12-12T02:25:16.257Z,0
2018-12-12T02:26:16.280Z,0
2018-12-12T02:27:16.290Z,0
2018-12-12T02:28:16.304Z,0
2018-12-12T02:29:16.371Z,0
2018-12-12T02:30:16.424Z,0
2018-12-12T02:31:31.012Z,0
2018-12-12T02:32:16.366Z,0
2018-12-12T02:33:16.429Z,0
2018-12-12T02:34:31.049Z,0
2018-12-12T02:35:31.067Z,0
2018-12-12T02:36:31.079Z,0
2018-12-12T02:37:16.460Z,0
2018-12-12T02:38:16.447Z,0
2018-12-12T02:39:45.786Z,0
2018-12-12T02:40:16.475Z,0
2018-12-12T02:41:16.487Z,0
2018-12-12T02:42:16.506Z,0
2018-12-12T02:43:31.178Z,0
2018-12-12T02:44:16.535Z,0
2018-12-12T02:45:16.545Z,0
2018-12-12T02:46:16.566Z,0
2018-12-12T02:47:16.576Z,0
2018-12-12T02:48:16.595Z,0
2018-12-12T02:49:16.652Z,0
2018-12-12T02:50:16.615Z,0
2018-12-12T02:51:16.629Z,0
2018-12-12T02:52:16.645Z,0
2018-12-12T02:53:16.673Z,0
2018-12-12T02:54:31.336Z,0
2018-12-12T02:55:16.691Z,0
2018-12-12T02:56:16.703Z,0
2018-12-12T02:57:16.726Z,0
2018-12-12T02:58:16.731Z,0
2018-12-12T02:59:16.747Z,0
2018-12-12T03:00:16.763Z,0
2018-12-12T03:01:16.771Z,0
2018-12-12T03:02:16.785Z,0
2018-12-12T03:03:16.797Z,0
2018-12-12T03:04:16.868Z,0
2018-12-12T03:05:16.841Z,0
2018-12-12T03:06:16.844Z,0
2018-12-12T03:07:16.854Z,0
2018-12-12T03:08:16.871Z,0
2018-12-12T03:09:16.894Z,0
2018-12-12T03:10:16.947Z,0
2018-12-12T03:11:16.918Z,0
2018-12-12T03:12:16.924Z,0
2018-12-12T03:13:16.942Z,0
2018-12-12T03:14:16.964Z,0
2018-12-12T03:15:31.696Z,0
2018-12-12T03:16:16.979Z,0
2018-12-12T03:17:17.047Z,0
2018-12-12T03:18:17.008Z,0
2018-12-12T03:19:17.031Z,0
2018-12-12T03:20:17.042Z,0
2018-12-12T03:21:17.053Z,0
2018-12-12T03:22:17.072Z,0
2018-12-12T03:23:17.082Z,0
2018-12-12T03:24:17.156Z,0
2018-12-12T03:25:17.129Z,0
2018-12-12T03:26:31.782Z,0
2018-12-12T03:27:17.134Z,0
2018-12-12T03:28:17.151Z,0
2018-12-12T03:30:17.189Z,0
2018-12-12T03:31:17.324Z,0
2018-12-12T03:32:17.285Z,0
2018-12-12T03:34:31.895Z,0
2018-12-12T03:35:17.250Z,0
2018-12-12T03:36:31.941Z,0
2018-12-12T03:39:17.324Z,0
2018-12-12T03:40:17.319Z,0
2018-12-12T03:41:17.335Z,0
2018-12-12T03:42:32.108Z,0
2018-12-12T03:43:17.408Z,0
2018-12-12T03:44:17.382Z,0
2018-12-12T03:45:17.491Z,0
2018-12-12T03:46:17.403Z,0
2018-12-12T03:47:17.419Z,0
2018-12-12T03:48:17.435Z,0
2018-12-12T03:49:17.251Z,0
2018-12-12T03:50:17.466Z,0
2018-12-12T03:51:17.480Z,0
2018-12-12T03:52:32.163Z,0
2018-12-12T03:53:32.218Z,0
2018-12-12T03:54:17.520Z,0
2018-12-12T03:55:17.282Z,0
2018-12-12T03:56:17.558Z,0
2018-12-12T03:57:17.565Z,0
2018-12-12T03:58:32.238Z,0
2018-12-12T03:59:17.595Z,0
2018-12-12T04:00:32.276Z,0
2018-12-12T04:01:17.671Z,0
2018-12-12T04:02:17.629Z,0
2018-12-12T04:03:17.646Z,0
2018-12-12T04:04:17.722Z,0
2018-12-12T04:05:17.695Z,0
2018-12-12T04:06:32.347Z,0
2018-12-12T04:07:17.718Z,0
2018-12-12T04:08:17.726Z,0
2018-12-12T04:09:17.734Z,0
2018-12-12T04:10:32.408Z,0
2018-12-12T04:12:17.821Z,0
2018-12-12T04:13:17.786Z,0
2018-12-12T04:14:32.459Z,0
2018-12-12T04:15:17.822Z,0
2018-12-12T04:16:32.495Z,0
2018-12-12T04:17:19.391Z,0
2018-12-12T04:19:17.875Z,0
2018-12-12T04:20:17.889Z,0
2018-12-12T04:21:17.914Z,0
2018-12-12T04:22:32.575Z,0
2018-12-12T04:23:17.991Z,0
2018-12-12T04:25:17.737Z,0
2018-12-12T04:26:17.980Z,0
2018-12-12T04:27:17.989Z,0
2018-12-12T04:28:18.005Z,0
2018-12-12T04:29:32.673Z,0
2018-12-12T04:30:32.696Z,0
2018-12-12T04:31:18.051Z,0
2018-12-12T04:32:18.052Z,0
2018-12-12T04:33:18.071Z,0
2018-12-12T04:35:18.108Z,0
2018-12-12T04:36:18.117Z,0
2018-12-12T04:37:18.127Z,0
2018-12-12T04:38:18.166Z,0
2018-12-12T04:39:18.157Z,0
2018-12-12T04:41:32.847Z,0
2018-12-12T04:42:18.270Z,0
2018-12-12T04:43:18.229Z,0
2018-12-12T04:44:18.224Z,0
2018-12-12T04:46:18.255Z,0
2018-12-12T04:47:18.287Z,0
2018-12-12T04:48:18.282Z,0
2018-12-12T04:49:18.390Z,0
2018-12-12T04:50:18.319Z,0
2018-12-12T04:51:18.427Z,0
2018-12-12T04:52:18.337Z,0
2018-12-12T04:53:18.356Z,0
2018-12-12T04:55:18.382Z,0
2018-12-12T04:56:18.397Z,0
2018-12-12T04:57:18.411Z,0
2018-12-12T04:58:18.423Z,0
2018-12-12T04:59:18.445Z,0
2018-12-12T05:00:18.450Z,0
2018-12-12T05:01:33.230Z,0
2018-12-12T05:02:18.483Z,0
2018-12-12T05:03:18.503Z,0
2018-12-12T05:04:18.506Z,0
2018-12-12T05:05:18.518Z,0
2018-12-12T05:06:18.537Z,0
2018-12-12T05:07:18.613Z,0
2018-12-12T05:08:18.622Z,0
2018-12-12T05:09:18.640Z,0
2018-12-12T05:11:18.612Z,0
2018-12-12T05:12:18.623Z,0
2018-12-12T05:14:18.651Z,0
2018-12-12T05:16:18.671Z,0
2018-12-12T05:17:33.350Z,0
2018-12-12T05:18:18.701Z,0
2018-12-12T05:19:18.716Z,0
2018-12-12T05:20:18.732Z,0
2018-12-12T05:21:18.742Z,0
2018-12-12T05:22:18.756Z,0
2018-12-12T05:23:18.776Z,0
2018-12-12T05:24:18.832Z,0
2018-12-12T05:25:18.800Z,0
2018-12-12T05:26:18.812Z,0
2018-12-12T05:27:18.824Z,0
2018-12-12T05:29:18.859Z,0
2018-12-12T05:30:18.980Z,0
2018-12-12T05:31:18.883Z,0
2018-12-12T05:32:18.891Z,0
2018-12-12T05:33:48.235Z,0
2018-12-12T05:34:18.929Z,0
2018-12-12T05:35:18.934Z,0
2018-12-12T05:36:18.954Z,0
2018-12-12T05:37:33.628Z,0
2018-12-12T05:38:18.976Z,0
2018-12-12T05:39:18.989Z,0
2018-12-12T05:40:19.062Z,0
2018-12-12T05:41:19.030Z,0
2018-12-12T05:42:19.034Z,0
2018-12-12T05:43:19.056Z,0
2018-12-12T05:44:19.065Z,0
2018-12-12T05:45:33.735Z,0
2018-12-12T05:46:19.137Z,0
2018-12-12T05:47:19.146Z,0
2018-12-12T05:48:19.116Z,0
2018-12-12T05:49:34.303Z,0
2018-12-12T05:50:33.906Z,0
2018-12-12T05:51:19.159Z,0
2018-12-12T05:52:19.168Z,0
2018-12-12T05:53:19.184Z,0
2018-12-12T05:54:19.247Z,0
2018-12-12T05:55:19.273Z,0
2018-12-12T05:56:21.472Z,0
2018-12-12T05:57:19.246Z,0
2018-12-12T05:58:33.911Z,0
2018-12-12T05:59:19.270Z,0
2018-12-12T06:00:19.324Z,0
2018-12-12T06:01:34.053Z,0
2018-12-12T06:02:19.319Z,0
2018-12-12T06:03:19.321Z,0
2018-12-12T06:04:34.096Z,0
2018-12-12T06:05:19.374Z,0
2018-12-12T06:06:34.028Z,0
2018-12-12T06:08:19.392Z,0
2018-12-12T06:09:19.402Z,0
2018-12-12T06:11:19.435Z,0
2018-12-12T06:12:19.448Z,0
2018-12-12T06:13:19.506Z,0
2018-12-12T06:14:34.232Z,0
2018-12-12T06:15:19.487Z,0
2018-12-12T06:16:19.500Z,0
2018-12-12T06:17:19.533Z,0
2018-12-12T06:18:19.524Z,0
2018-12-12T06:19:19.591Z,0
2018-12-12T06:20:19.555Z,0
2018-12-12T06:21:19.617Z,0
2018-12-12T06:22:19.578Z,0
2018-12-12T06:23:19.600Z,0
2018-12-12T06:24:19.711Z,0
2018-12-12T06:26:19.633Z,0
2018-12-12T06:27:19.749Z,0
2018-12-12T06:28:19.668Z,0
2018-12-12T06:29:19.682Z,4
2018-12-12T06:30:19.745Z,4
2018-12-12T06:31:19.717Z,0
2018-12-12T06:33:19.805Z,0
2018-12-12T06:34:19.747Z,4
2018-12-12T06:35:19.763Z,4
2018-12-12T06:36:34.431Z,0
2018-12-12T06:37:19.785Z,4
2018-12-12T06:38:19.796Z,4
2018-12-12T06:39:19.894Z,4
2018-12-12T06:40:19.926Z,4
2018-12-12T06:41:34.502Z,4
2018-12-12T06:43:19.869Z,4
2018-12-12T06:44:19.886Z,8
2018-12-12T06:45:19.899Z,8
2018-12-12T06:46:19.904Z,8
2018-12-12T06:47:19.928Z,12
2018-12-12T06:48:19.943Z,16
2018-12-12T06:49:19.957Z,16
2018-12-12T06:50:20.011Z,16
2018-12-12T06:51:20.022Z,20
2018-12-12T06:52:34.699Z,24
2018-12-12T06:53:20.001Z,24
2018-12-12T06:54:20.018Z,24
2018-12-12T06:55:20.034Z,28
2018-12-12T06:56:20.042Z,32
2018-12-12T06:57:20.056Z,32
2018-12-12T06:58:20.070Z,36
2018-12-12T06:59:20.085Z,40
2018-12-12T07:00:20.105Z,44
2018-12-12T07:01:20.116Z,48
2018-12-12T07:02:34.792Z,52
2018-12-12T07:03:34.807Z,56
2018-12-12T07:04:20.152Z,60
2018-12-12T07:05:20.174Z,72
2018-12-12T07:06:20.189Z,80
2018-12-12T07:07:20.194Z,84
2018-12-12T07:08:34.867Z,92
2018-12-12T07:09:20.297Z,92
2018-12-12T07:10:20.238Z,100
2018-12-12T07:11:20.251Z,100
2018-12-12T07:12:20.259Z,108
2018-12-12T07:14:20.342Z,128
2018-12-12T07:15:20.318Z,140
2018-12-12T07:16:20.337Z,152
2018-12-12T07:17:20.338Z,164
2018-12-12T07:18:35.010Z,176
2018-12-12T07:19:20.363Z,184
2018-12-12T07:20:20.369Z,188
2018-12-12T07:22:20.400Z,200
2018-12-12T07:23:20.418Z,208
2018-12-12T07:24:35.087Z,220
2018-12-12T07:25:20.439Z,228
2018-12-12T07:26:20.454Z,244
2018-12-12T07:27:20.517Z,264
2018-12-12T07:28:20.241Z,288
2018-12-12T07:29:20.512Z,328
2018-12-12T07:30:35.175Z,376
2018-12-12T07:31:35.184Z,404
2018-12-12T07:32:35.203Z,432
2018-12-12T07:33:20.612Z,440
2018-12-12T07:34:20.572Z,432
2018-12-12T07:35:20.592Z,424
2018-12-12T07:36:20.593Z,416
2018-12-12T07:37:35.275Z,416
2018-12-12T07:38:20.623Z,416
2018-12-12T07:39:35.307Z,420
2018-12-12T07:40:20.653Z,420
2018-12-12T07:41:20.661Z,420
2018-12-12T07:42:20.688Z,424
2018-12-12T07:43:20.687Z,420
2018-12-12T07:44:20.706Z,416
2018-12-12T07:45:21.495Z,412
2018-12-12T07:46:20.781Z,416
2018-12-12T07:47:21.385Z,416
2018-12-12T07:48:20.756Z,424
2018-12-12T07:49:20.776Z,436
2018-12-12T07:50:20.782Z,452
2018-12-12T07:51:20.798Z,460
2018-12-12T07:52:20.818Z,464
2018-12-12T07:53:20.824Z,464
2018-12-12T07:54:20.839Z,468
2018-12-12T07:55:20.859Z,488
2018-12-12T07:56:20.868Z,500
2018-12-12T07:57:20.883Z,524
2018-12-12T07:58:20.893Z,560
2018-12-12T07:59:20.962Z,600
2018-12-12T08:00:20.925Z,640
2018-12-12T08:01:20.939Z,680
2018-12-12T08:02:20.951Z,704
2018-12-12T08:03:20.973Z,712
2018-12-12T08:04:35.640Z,724
2018-12-12T08:05:35.680Z,740
2018-12-12T08:06:21.004Z,756
2018-12-12T08:07:21.020Z,788
2018-12-12T08:08:21.043Z,828
2018-12-12T08:09:20.864Z,872
2018-12-12T08:10:21.061Z,908
2018-12-12T08:11:35.740Z,944
2018-12-12T08:12:21.087Z,956
2018-12-12T08:13:21.103Z,976
2018-12-12T08:14:21.124Z,988
2018-12-12T08:15:21.130Z,1000
2018-12-12T08:16:21.146Z,1020
2018-12-12T08:17:21.165Z,1048
2018-12-12T08:19:21.185Z,1084
2018-12-12T08:20:21.199Z,1088
2018-12-12T08:21:35.876Z,1112
2018-12-12T08:22:21.225Z,1128
2018-12-12T08:23:21.240Z,1148
2018-12-12T08:24:21.258Z,1160
2018-12-12T08:25:21.270Z,1156
2018-12-12T08:26:21.280Z,1144
2018-12-12T08:27:35.955Z,1156
2018-12-12T08:28:36.024Z,1192
2018-12-12T08:29:21.322Z,1208
2018-12-12T08:30:21.347Z,1208
2018-12-12T08:31:21.365Z,1232
2018-12-12T08:32:36.032Z,1276
2018-12-12T08:33:22.206Z,1300
2018-12-12T08:34:21.406Z,1328
2018-12-12T08:35:21.407Z,1372
2018-12-12T08:36:21.524Z,1412
2018-12-12T08:37:21.481Z,1440
2018-12-12T08:38:21.455Z,1452
2018-12-12T08:39:21.470Z,1448
2018-12-12T08:40:36.134Z,1432
2018-12-12T08:41:21.494Z,1452
2018-12-12T08:42:21.514Z,1492
2018-12-12T08:43:36.280Z,1524
2018-12-12T08:44:21.535Z,1544
2018-12-12T08:45:21.550Z,1572
2018-12-12T08:46:21.611Z,1620
2018-12-12T08:47:21.570Z,1608
2018-12-12T08:48:21.646Z,1592
2018-12-12T08:49:21.608Z,1568
2018-12-12T08:50:21.617Z,1492
2018-12-12T08:51:21.626Z,1552
2018-12-12T08:52:21.652Z,1632
2018-12-12T08:53:21.707Z,1568
2018-12-12T08:54:21.674Z,1652
2018-12-12T08:55:24.906Z,1644
2018-12-12T08:56:21.710Z,1616
2018-12-12T08:57:21.714Z,1568
2018-12-12T08:58:21.730Z,1572
2018-12-12T08:59:36.400Z,1628
2018-12-12T09:00:21.764Z,1680
2018-12-12T09:01:21.773Z,1720
2018-12-12T09:02:21.854Z,1724
2018-12-12T09:03:39.439Z,1608
2018-12-12T09:04:21.821Z,1560
2018-12-12T09:05:21.877Z,1524
2018-12-12T09:06:36.519Z,1820
2018-12-12T09:09:21.884Z,1616
2018-12-12T09:10:36.558Z,1724
2018-12-12T09:11:22.033Z,1800
2018-12-12T09:12:21.930Z,1820
2018-12-12T09:13:22.728Z,1836
2018-12-12T09:14:36.616Z,1808
2018-12-12T09:15:36.634Z,1760
2018-12-12T09:16:21.987Z,1736
2018-12-12T09:17:36.662Z,1704
2018-12-12T09:18:22.011Z,1720
2018-12-12T09:19:22.023Z,1736
2018-12-12T09:20:22.039Z,1668
2018-12-12T09:21:22.062Z,1532
2018-12-12T09:22:36.727Z,1396
2018-12-12T09:23:22.081Z,1316
2018-12-12T09:24:22.101Z,1264
2018-12-12T09:25:22.113Z,1412
2018-12-12T09:26:22.131Z,1536
2018-12-12T09:28:22.203Z,2032
2018-12-12T09:29:22.170Z,2188
2018-12-12T09:30:22.185Z,2240
2018-12-12T09:31:22.195Z,2400
2018-12-12T09:32:22.212Z,2692
2018-12-12T09:33:29.306Z,3016
2018-12-12T09:34:22.242Z,3428
2018-12-12T09:35:22.254Z,3824
2018-12-12T09:36:36.929Z,4136
2018-12-12T09:37:22.288Z,4284
2018-12-12T09:38:22.308Z,4460
2018-12-12T09:39:22.313Z,4640
2018-12-12T09:41:22.338Z,5160
2018-12-12T09:42:22.350Z,5300
2018-12-12T09:43:22.374Z,5376
2018-12-12T09:44:22.436Z,5352
2018-12-12T09:45:29.037Z,5268
2018-12-12T09:46:37.075Z,5292
2018-12-12T09:47:37.093Z,5108
2018-12-12T09:48:26.835Z,4844
2018-12-12T09:49:22.457Z,4788
2018-12-12T09:50:22.524Z,4940
2018-12-12T09:51:37.147Z,5068
2018-12-12T09:52:22.503Z,5032
2018-12-12T09:53:22.519Z,5172
2018-12-12T09:54:22.532Z,5184
2018-12-12T09:55:22.550Z,5144
2018-12-12T09:56:22.561Z,5176
2018-12-12T09:57:22.632Z,5072
2018-12-12T09:58:22.601Z,5344
2018-12-12T09:59:22.609Z,5604
2018-12-12T10:00:22.620Z,5268
2018-12-12T10:02:37.363Z,4520
2018-12-12T10:03:22.665Z,4228
2018-12-12T10:04:22.682Z,3824
2018-12-12T10:05:22.692Z,3804
2018-12-12T10:06:22.710Z,3880
2018-12-12T10:07:37.434Z,4060
2018-12-12T10:08:22.741Z,4108
2018-12-12T10:09:22.753Z,3916
2018-12-12T10:10:22.768Z,3560
2018-12-12T10:12:22.801Z,3432
2018-12-12T10:13:22.816Z,3396
2018-12-12T10:14:22.825Z,2928
2018-12-12T10:15:22.845Z,2672
2018-12-12T10:16:23.745Z,2772
2018-12-12T10:17:22.871Z,2616
2018-12-12T10:18:37.595Z,2396
2018-12-12T10:19:22.901Z,2584
2018-12-12T10:20:22.967Z,2660
2018-12-12T10:21:22.933Z,2340
2018-12-12T10:22:23.005Z,2368
2018-12-12T10:23:22.963Z,2436
2018-12-12T10:24:23.748Z,2432
2018-12-12T10:25:23.003Z,2520
2018-12-12T10:26:37.666Z,2764
2018-12-12T10:27:37.686Z,2972
2018-12-12T10:28:23.035Z,2940
2018-12-12T10:29:23.058Z,2972
2018-12-12T10:30:23.071Z,3084
2018-12-12T10:31:23.086Z,3196
2018-12-12T10:32:23.109Z,3144
2018-12-12T10:33:23.163Z,3132
2018-12-12T10:34:37.786Z,2904
2018-12-12T10:35:23.146Z,2772
2018-12-12T10:36:23.167Z,2880
2018-12-12T10:37:37.837Z,3368
2018-12-12T10:38:23.195Z,3900
2018-12-12T10:39:23.250Z,4144
2018-12-12T10:40:37.877Z,4064
2018-12-12T10:41:23.230Z,3988
2018-12-12T10:42:23.256Z,3900
2018-12-12T10:43:37.940Z,3884
2018-12-12T10:44:23.270Z,3912
2018-12-12T10:45:23.298Z,4128
2018-12-12T10:46:23.305Z,4160
2018-12-12T10:47:23.368Z,4140
2018-12-12T10:48:23.438Z,4464
2018-12-12T10:49:38.048Z,4552
2018-12-12T10:50:38.086Z,4476
2018-12-12T10:51:23.376Z,4204
2018-12-12T10:52:23.453Z,4096
2018-12-12T10:53:23.420Z,3832
2018-12-12T10:54:23.432Z,3636
2018-12-12T10:55:23.485Z,3876
2018-12-12T10:56:38.114Z,3648
2018-12-12T10:57:23.471Z,3320
2018-12-12T10:58:23.510Z,3104
2018-12-12T10:59:23.496Z,2864
2018-12-12T11:00:23.538Z,2764
2018-12-12T11:01:38.195Z,2508
2018-12-12T11:02:38.256Z,2460
2018-12-12T11:03:23.563Z,2388
2018-12-12T11:04:23.571Z,2540
2018-12-12T11:05:23.591Z,3040
2018-12-12T11:06:23.604Z,2536
2018-12-12T11:07:23.616Z,2032
2018-12-12T11:08:23.645Z,2268
2018-12-12T11:09:23.650Z,2392
2018-12-12T11:10:38.327Z,2380
2018-12-12T11:11:23.682Z,2552
2018-12-12T11:12:23.755Z,2684
2018-12-12T11:13:23.715Z,2824
2018-12-12T11:14:23.727Z,2884
2018-12-12T11:15:38.400Z,2960
2018-12-12T11:16:38.416Z,2652
2018-12-12T11:17:23.789Z,2488
2018-12-12T11:18:23.790Z,2676
2018-12-12T11:19:23.821Z,3064
2018-12-12T11:20:23.816Z,3796
2018-12-12T11:21:38.487Z,4452
2018-12-12T11:22:23.942Z,4736
2018-12-12T11:23:23.858Z,5096
2018-12-12T11:24:23.873Z,5148
2018-12-12T11:25:23.887Z,5084
2018-12-12T11:26:23.911Z,5092
2018-12-12T11:27:23.918Z,5244
2018-12-12T11:28:23.935Z,5828
2018-12-12T11:29:23.946Z,5900
2018-12-12T11:30:23.966Z,5360
2018-12-12T11:31:23.734Z,5680
2018-12-12T11:32:23.990Z,5992
2018-12-12T11:33:24.064Z,6644
2018-12-12T11:34:24.021Z,7140
2018-12-12T11:35:38.774Z,7204
2018-12-12T11:36:24.065Z,7308
2018-12-12T11:37:38.497Z,7424
2018-12-12T11:38:24.084Z,7712
2018-12-12T11:39:24.100Z,7784
2018-12-12T11:40:24.117Z,7852
2018-12-12T11:41:24.184Z,7568
2018-12-12T11:42:24.168Z,7244
2018-12-12T11:43:24.162Z,7284
2018-12-12T11:44:24.278Z,7008
2018-12-12T11:45:24.190Z,7504
2018-12-12T11:46:24.212Z,6976
2018-12-12T11:47:24.230Z,6600
2018-12-12T11:48:24.238Z,6416
2018-12-12T11:49:24.266Z,6148
2018-12-12T11:50:24.271Z,6264
2018-12-12T11:51:24.345Z,6192
2018-12-12T11:52:24.306Z,6088
2018-12-12T11:53:38.982Z,6204
2018-12-12T11:54:24.341Z,5828
2018-12-12T11:55:24.360Z,5488
2018-12-12T11:56:39.041Z,4924
2018-12-12T11:57:24.434Z,4388
2018-12-12T11:58:24.457Z,3708
2018-12-12T11:59:24.414Z,3124
2018-12-12T12:00:24.482Z,2644
2018-12-12T12:01:24.500Z,2400
2018-12-12T12:02:24.473Z,2216
2018-12-12T12:03:24.483Z,2096
2018-12-12T12:04:39.154Z,2024
2018-12-12T12:05:24.520Z,2036
2018-12-12T12:06:39.186Z,2260
2018-12-12T12:07:25.668Z,2392
2018-12-12T12:08:24.560Z,2596
2018-12-12T12:09:39.245Z,2832
2018-12-12T12:10:24.587Z,3028
2018-12-12T12:11:24.601Z,3056
2018-12-12T12:12:24.672Z,3004
2018-12-12T12:13:24.638Z,3040
2018-12-12T12:14:24.653Z,3132
2018-12-12T12:15:24.471Z,3164
2018-12-12T12:16:24.678Z,3124
2018-12-12T12:17:24.696Z,3072
2018-12-12T12:18:24.714Z,3016
2018-12-12T12:19:24.728Z,2936
2018-12-12T12:20:24.740Z,2872
2018-12-12T12:21:24.762Z,2820
2018-12-12T12:22:24.782Z,2804
2018-12-12T12:23:24.788Z,2796
2018-12-12T12:24:39.467Z,2756
2018-12-12T12:25:24.820Z,2740
2018-12-12T12:26:24.834Z,2764
2018-12-12T12:27:24.853Z,2824
2018-12-12T12:28:24.866Z,2744
2018-12-12T12:29:24.897Z,2364
2018-12-12T12:30:39.560Z,1948
2018-12-12T12:31:24.912Z,1848
2018-12-12T12:32:24.931Z,1804
2018-12-12T12:33:39.605Z,1808
2018-12-12T12:34:39.618Z,1956
2018-12-12T12:35:24.975Z,2140
2018-12-12T12:36:24.988Z,2436
2018-12-12T12:37:39.664Z,2600
2018-12-12T12:38:25.063Z,2652
2018-12-12T12:39:25.034Z,2588
2018-12-12T12:40:25.049Z,2296
2018-12-12T12:42:25.188Z,2048
2018-12-12T12:43:25.095Z,2128
2018-12-12T12:44:25.267Z,2116
2018-12-12T12:45:25.125Z,1900
2018-12-12T12:46:25.154Z,1820
2018-12-12T12:47:25.204Z,1776
2018-12-12T12:48:39.831Z,1756
2018-12-12T12:49:25.218Z,1840
2018-12-12T12:50:25.252Z,1992
2018-12-12T12:51:25.278Z,2164
2018-12-12T12:52:25.287Z,2280
2018-12-12T12:53:39.908Z,2304
2018-12-12T12:54:25.269Z,2364
2018-12-12T12:55:25.284Z,2556
2018-12-12T12:56:39.963Z,2816
2018-12-12T12:57:25.321Z,2920
2018-12-12T12:58:25.337Z,3020
2018-12-12T12:59:25.341Z,3092
2018-12-12T13:00:25.412Z,3076
2018-12-12T13:01:25.367Z,3048
2018-12-12T13:02:25.387Z,2948
2018-12-12T13:03:25.397Z,2768
2018-12-12T13:04:25.432Z,2616
2018-12-12T13:05:25.431Z,2468
2018-12-12T13:06:25.443Z,2360
2018-12-12T13:07:25.457Z,2260
2018-12-12T13:09:25.493Z,2080
2018-12-12T13:10:40.168Z,1960
2018-12-12T13:11:25.524Z,1908
2018-12-12T13:12:40.201Z,1844
2018-12-12T13:13:26.119Z,1816
2018-12-12T13:14:25.621Z,1796
2018-12-12T13:15:25.633Z,1784
2018-12-12T13:16:25.601Z,1776
2018-12-12T13:17:25.615Z,1776
2018-12-12T13:18:25.630Z,1796
2018-12-12T13:19:40.304Z,1828
2018-12-12T13:20:25.668Z,1832
2018-12-12T13:21:25.769Z,1828
2018-12-12T13:22:40.356Z,1832
2018-12-12T13:23:25.709Z,1828
2018-12-12T13:24:25.725Z,1836
2018-12-12T13:25:25.737Z,1864
2018-12-12T13:26:25.753Z,1908
2018-12-12T13:27:25.763Z,1948
2018-12-12T13:28:40.442Z,1996
2018-12-12T13:29:25.575Z,2024
2018-12-12T13:30:40.478Z,2104
2018-12-12T13:31:25.916Z,2160
2018-12-12T13:32:25.850Z,2256
2018-12-12T13:33:25.862Z,2352
2018-12-12T13:34:25.876Z,2440
2018-12-12T13:35:25.885Z,2512
2018-12-12T13:36:25.949Z,2584
2018-12-12T13:37:25.910Z,2800
2018-12-12T13:38:25.986Z,3000
2018-12-12T13:39:40.603Z,2944
2018-12-12T13:40:40.616Z,2972
2018-12-12T13:41:25.975Z,3008
2018-12-12T13:42:26.089Z,3048
2018-12-12T13:43:26.063Z,3104
2018-12-12T13:44:40.676Z,3032
2018-12-12T13:46:26.052Z,2604
2018-12-12T13:47:26.216Z,2356
2018-12-12T13:48:26.075Z,2172
2018-12-12T13:49:26.088Z,2028
2018-12-12T13:50:26.154Z,1908
2018-12-12T13:51:26.125Z,1816
2018-12-12T13:52:40.798Z,1716
2018-12-12T13:53:26.161Z,1664
2018-12-12T13:54:26.166Z,1608
2018-12-12T13:55:40.848Z,1548
2018-12-12T13:57:26.213Z,1496
2018-12-12T13:58:26.227Z,1484
2018-12-12T13:59:40.906Z,1472
2018-12-12T14:01:40.937Z,1452
2018-12-12T14:02:40.954Z,1440
2018-12-12T14:03:26.301Z,1424
2018-12-12T14:04:29.997Z,1392
2018-12-12T14:05:26.326Z,1352
2018-12-12T14:06:26.343Z,1316
2018-12-12T14:07:26.110Z,1288
2018-12-12T14:08:41.052Z,1236
2018-12-12T14:09:26.461Z,1208
2018-12-12T14:10:26.469Z,1172
2018-12-12T14:11:26.505Z,1144
2018-12-12T14:12:26.434Z,1112
2018-12-12T14:13:26.453Z,1084
2018-12-12T14:14:41.134Z,1052
2018-12-12T14:15:26.247Z,1032
2018-12-12T14:16:26.501Z,1000
2018-12-12T14:17:26.506Z,972
2018-12-12T14:18:26.524Z,944
2018-12-12T14:19:26.538Z,916
2018-12-12T14:20:26.669Z,892
2018-12-12T14:21:26.568Z,864
2018-12-12T14:22:26.584Z,840
2018-12-12T14:23:26.594Z,812
2018-12-12T14:24:26.618Z,788
2018-12-12T14:25:41.286Z,764
2018-12-12T14:26:26.643Z,744
2018-12-12T14:27:26.666Z,724
2018-12-12T14:28:26.676Z,704
2018-12-12T14:29:26.688Z,684
2018-12-12T14:31:41.376Z,640
2018-12-12T14:32:26.725Z,624
2018-12-12T14:33:26.744Z,608
2018-12-12T14:34:31.751Z,588
2018-12-12T14:35:26.774Z,568
2018-12-12T14:36:26.814Z,548
2018-12-12T14:37:26.807Z,524
2018-12-12T14:38:26.820Z,492
2018-12-12T14:39:26.865Z,460
2018-12-12T14:40:26.848Z,432
2018-12-12T14:41:26.867Z,404
2018-12-12T14:42:26.877Z,368